Time;durP1;ratioP1;P1;durP2;ratioP2;P2;SDS_P1;SDS_P2;PMS_P1;PMS_P2;Temp;Humidity;BMP_temperature;BMP_pressure;BME280_temperature;BME280_humidity;BME280_pressure;Samples;Min_cycle;Max_cycle;Signal;HPM_P1;HPM_P2
2022/10/16 00:04:45;;;;;;;3.10;2.20;;;19.00;47.10;;;;;;10383626;28;20241;-70
2022/10/16 00:09:48;;;;;;;2.60;2.40;;;18.90;47.30;;;;;;10383670;28;20238;-71
2022/10/16 00:14:53;;;;;;;3.23;2.50;;;18.90;48.10;;;;;;10382804;28;20222;-71
2022/10/16 00:19:56;;;;;;;2.70;2.50;;;18.90;47.70;;;;;;10384180;28;20241;-71
2022/10/16 00:24:59;;;;;;;2.33;2.10;;;18.80;47.20;;;;;;10382296;28;20222;-70
2022/10/16 00:30:05;;;;;;;3.17;2.10;;;18.70;47.20;;;;;;10380198;28;20230;-71
2022/10/16 00:35:08;;;;;;;3.83;2.30;;;18.60;47.50;;;;;;10377388;28;20222;-70
2022/10/16 00:40:11;;;;;;;2.37;2.17;;;18.50;47.50;;;;;;10385392;28;20236;-70
2022/10/16 00:45:16;;;;;;;3.20;2.27;;;18.50;47.40;;;;;;10377805;28;20226;-71
2022/10/16 00:50:27;;;;;;;2.30;2.10;;;18.50;47.50;;;;;;10381240;28;20712;-71
2022/10/16 00:55:31;;;;;;;2.13;1.83;;;18.40;47.60;;;;;;10382795;28;20301;-69
2022/10/16 01:00:36;;;;;;;2.10;1.90;;;18.40;47.30;;;;;;10383135;28;20230;-71
2022/10/16 01:05:55;;;;;;;2.10;2.00;;;18.40;47.40;;;;;;10382390;28;20615;-71
2022/10/16 01:11:02;;;;;;;2.20;1.83;;;18.30;47.80;;;;;;10383763;28;20230;-71
2022/10/16 01:16:15;;;;;;;4.07;1.63;;;18.30;47.50;;;;;;10380380;28;20280;-71
2022/10/16 01:21:23;;;;;;;4.67;1.63;;;18.30;48.10;;;;;;10380308;28;20233;-71
2022/10/16 01:26:43;;;;;;;2.33;1.97;;;18.20;48.00;;;;;;10375599;28;20230;-70
2022/10/16 01:31:51;;;;;;;1.90;1.70;;;18.30;48.10;;;;;;10382637;28;20233;-70
2022/10/16 01:36:59;;;;;;;2.00;1.80;;;18.30;47.60;;;;;;10381457;28;20747;-71
2022/10/16 01:42:06;;;;;;;2.80;1.87;;;18.30;47.30;;;;;;10381881;28;20837;-71
2022/10/16 01:47:13;;;;;;;2.17;1.80;;;18.20;47.40;;;;;;10380589;28;20287;-71
2022/10/16 01:52:21;;;;;;;1.70;1.60;;;18.20;47.40;;;;;;10376925;28;20218;-70
2022/10/16 01:57:26;;;;;;;2.03;1.53;;;18.20;47.40;;;;;;10380095;28;20259;-71
2022/10/16 02:02:32;;;;;;;2.20;2.00;;;18.20;47.40;;;;;;10379940;28;20773;-70
2022/10/16 02:07:35;;;;;;;3.80;2.00;;;18.20;47.20;;;;;;10378127;28;20674;-71
2022/10/16 02:12:41;;;;;;;5.47;1.80;;;18.20;47.20;;;;;;10378251;28;20218;-71
2022/10/16 02:17:46;;;;;;;4.80;1.50;;;18.20;47.20;;;;;;10376578;28;20751;-71
2022/10/16 02:22:52;;;;;;;3.83;1.73;;;18.10;47.10;;;;;;10375897;28;20230;-71
2022/10/16 02:27:58;;;;;;;2.37;1.60;;;18.10;47.10;;;;;;10378635;28;20241;-71
2022/10/16 02:33:07;;;;;;;2.13;1.93;;;18.00;47.00;;;;;;10386504;28;20222;-71
2022/10/16 02:38:11;;;;;;;2.37;1.60;;;17.90;47.00;;;;;;10389279;28;20718;-71
2022/10/16 02:43:14;;;;;;;2.53;1.87;;;17.80;47.30;;;;;;10386136;28;20233;-71
2022/10/16 02:48:19;;;;;;;2.47;1.70;;;17.70;47.50;;;;;;10388403;28;20231;-71
2022/10/16 02:53:22;;;;;;;2.07;1.60;;;17.70;47.70;;;;;;10384674;28;20229;-71
2022/10/16 02:58:25;;;;;;;2.27;1.70;;;17.70;47.50;;;;;;10383324;28;20735;-71
2022/10/16 03:03:30;;;;;;;4.83;1.43;;;17.70;47.30;;;;;;10384801;28;20292;-71
2022/10/16 03:08:33;;;;;;;5.03;1.70;;;17.70;47.40;;;;;;10384032;28;20245;-70
2022/10/16 03:13:36;;;;;;;3.33;1.40;;;17.70;47.30;;;;;;10386533;28;20244;-71
2022/10/16 03:18:41;;;;;;;2.80;1.60;;;17.70;47.30;;;;;;10381993;28;20634;-71
2022/10/16 03:23:44;;;;;;;2.83;1.67;;;17.70;47.30;;;;;;10386333;28;20899;-71
2022/10/16 03:28:47;;;;;;;1.70;1.50;;;17.60;47.00;;;;;;10385923;28;20241;-71
2022/10/16 03:33:51;;;;;;;3.47;1.57;;;17.60;47.10;;;;;;10381848;28;20287;-71
2022/10/16 03:38:55;;;;;;;2.40;1.70;;;17.60;47.20;;;;;;10381580;28;20234;-71
2022/10/16 03:43:58;;;;;;;1.80;1.57;;;17.60;47.10;;;;;;10381648;28;20283;-70
2022/10/16 03:49:02;;;;;;;3.90;1.80;;;17.60;47.30;;;;;;10382992;28;20898;-71
2022/10/16 03:54:11;;;;;;;4.40;1.53;;;17.50;47.40;;;;;;10383563;28;20226;-71
2022/10/16 03:59:14;;;;;;;1.60;1.50;;;17.50;47.30;;;;;;10381110;28;20724;-71
2022/10/16 04:04:18;;;;;;;2.07;1.80;;;17.50;47.40;;;;;;10378929;28;20242;-71
2022/10/16 04:09:22;;;;;;;2.43;1.57;;;17.50;47.70;;;;;;10381793;28;20242;-71
2022/10/16 04:14:25;;;;;;;2.50;1.90;;;17.40;47.90;;;;;;10384759;28;20292;-70
2022/10/16 04:19:29;;;;;;;4.07;1.50;;;17.30;48.00;;;;;;10378721;28;20245;-71
2022/10/16 04:24:33;;;;;;;3.23;1.50;;;17.20;48.50;;;;;;10386226;28;20238;-71
2022/10/16 04:29:36;;;;;;;2.37;1.50;;;17.20;48.70;;;;;;10379881;28;20783;-71
2022/10/16 04:34:41;;;;;;;4.20;1.60;;;17.20;48.70;;;;;;10383963;28;20229;-71
2022/10/16 04:39:44;;;;;;;2.30;1.87;;;17.20;49.30;;;;;;10384932;28;20221;-71
2022/10/16 04:44:47;;;;;;;1.97;1.87;;;17.20;48.90;;;;;;10379821;28;20229;-70
2022/10/16 04:49:52;;;;;;;1.93;1.83;;;17.20;49.00;;;;;;10383116;28;20237;-71
2022/10/16 04:54:56;;;;;;;2.03;1.70;;;17.30;49.30;;;;;;10381251;28;20234;-71
2022/10/16 04:59:59;;;;;;;1.80;1.70;;;17.30;49.10;;;;;;10386391;28;20235;-71
2022/10/16 05:05:04;;;;;;;5.27;1.60;;;17.40;49.00;;;;;;10376396;28;20225;-71
2022/10/16 05:10:07;;;;;;;2.40;1.70;;;17.40;49.20;;;;;;10385008;28;20257;-71
2022/10/16 05:15:11;;;;;;;2.00;1.60;;;17.40;49.00;;;;;;10380456;28;20257;-71
2022/10/16 05:20:15;;;;;;;1.80;1.43;;;17.40;48.90;;;;;;10377598;28;20373;-71
2022/10/16 05:25:19;;;;;;;2.73;1.80;;;17.40;49.10;;;;;;10381009;28;20230;-71
2022/10/16 05:30:22;;;;;;;1.83;1.70;;;17.30;48.90;;;;;;10375989;28;20233;-71
2022/10/16 05:35:27;;;;;;;4.63;2.20;;;17.30;49.00;;;;;;10378511;28;20272;-71
2022/10/16 05:40:30;;;;;;;3.00;2.10;;;17.30;49.30;;;;;;10378619;28;20234;-71
2022/10/16 05:45:33;;;;;;;2.50;2.00;;;17.40;49.20;;;;;;10382407;28;20228;-71
2022/10/16 05:50:37;;;;;;;2.73;2.03;;;17.40;49.20;;;;;;10379890;28;20237;-71
2022/10/16 05:55:40;;;;;;;1.73;1.63;;;17.40;49.30;;;;;;10378423;28;20626;-71
2022/10/16 06:00:44;;;;;;;2.43;1.80;;;17.40;49.10;;;;;;10383116;28;20238;-70
2022/10/16 06:05:48;;;;;;;2.33;1.90;;;17.40;49.30;;;;;;10384301;28;20234;-69
2022/10/16 06:11:01;;;;;;;2.50;2.20;;;17.40;49.50;;;;;;10387343;28;20242;-69
2022/10/16 06:16:05;;;;;;;2.30;2.10;;;17.40;49.90;;;;;;10383467;28;20696;-70
2022/10/16 06:21:12;;;;;;;1.80;1.70;;;17.40;49.40;;;;;;10385268;28;20720;-69
2022/10/16 06:26:18;;;;;;;4.17;2.33;;;17.40;49.70;;;;;;10390356;28;20225;-69
2022/10/16 06:31:22;;;;;;;2.33;2.10;;;17.40;49.70;;;;;;10386750;28;20330;-69
2022/10/16 06:36:27;;;;;;;2.17;1.97;;;17.40;49.30;;;;;;10384068;28;20233;-69
2022/10/16 06:41:30;;;;;;;2.30;2.00;;;17.40;49.80;;;;;;10387781;28;20716;-69
2022/10/16 06:46:34;;;;;;;5.03;1.80;;;17.40;49.70;;;;;;10385162;28;20234;-69
2022/10/16 06:51:40;;;;;;;2.40;1.90;;;17.40;50.10;;;;;;10387227;28;20283;-69
2022/10/16 06:56:45;;;;;;;2.70;1.63;;;17.50;50.70;;;;;;10379591;28;20245;-69
2022/10/16 07:01:49;;;;;;;2.10;1.90;;;17.60;50.50;;;;;;10384109;28;20648;-69
2022/10/16 07:06:53;;;;;;;2.63;2.00;;;17.60;50.40;;;;;;10382180;28;20230;-69
2022/10/16 07:11:56;;;;;;;2.53;1.60;;;17.70;50.80;;;;;;10381473;28;20604;-69
2022/10/16 07:16:59;;;;;;;4.30;2.00;;;17.80;50.60;;;;;;10381540;28;20706;-69
2022/10/16 07:22:04;;;;;;;1.90;1.70;;;17.90;50.80;;;;;;10381989;28;20222;-69
2022/10/16 07:27:07;;;;;;;2.63;1.70;;;17.90;50.90;;;;;;10381147;28;20259;-69
2022/10/16 07:32:10;;;;;;;1.90;1.80;;;18.10;50.90;;;;;;10380830;28;20248;-69
2022/10/16 07:37:15;;;;;;;1.80;1.70;;;18.20;51.00;;;;;;10381146;28;20287;-69
2022/10/16 07:42:19;;;;;;;1.73;1.63;;;18.30;51.20;;;;;;10369406;28;20221;-69
2022/10/16 07:47:23;;;;;;;1.70;1.60;;;18.60;51.50;;;;;;10370079;28;20235;-69
2022/10/16 07:52:28;;;;;;;1.60;1.50;;;18.80;51.30;;;;;;10379525;28;20237;-69
2022/10/16 07:57:31;;;;;;;4.90;1.83;;;19.00;51.00;;;;;;10383504;28;20295;-69
2022/10/16 08:02:34;;;;;;;2.00;1.80;;;19.30;51.50;;;;;;10382122;28;20230;-69
2022/10/16 08:07:38;;;;;;;1.93;1.83;;;19.50;51.00;;;;;;10380808;28;20260;-68
2022/10/16 08:12:41;;;;;;;1.60;1.50;;;19.80;50.20;;;;;;10379093;28;20218;-68
2022/10/16 08:17:45;;;;;;;2.47;1.90;;;20.00;50.40;;;;;;10382185;28;20234;-68
2022/10/16 08:22:49;;;;;;;1.90;1.80;;;20.30;50.20;;;;;;10380229;28;20289;-68
2022/10/16 08:27:52;;;;;;;2.00;1.70;;;20.50;49.20;;;;;;10371994;28;20755;-68
2022/10/16 08:32:55;;;;;;;3.17;1.83;;;20.80;49.40;;;;;;10375967;28;20233;-68
2022/10/16 08:38:00;;;;;;;2.80;1.87;;;20.90;49.30;;;;;;10375617;28;20230;-68
2022/10/16 08:43:21;;;;;;;3.33;1.70;;;21.20;48.30;;;;;;10376678;28;21025;-69
2022/10/16 08:48:31;;;;;;;1.80;1.70;;;21.30;47.40;;;;;;10374432;28;20303;-69
2022/10/16 08:53:44;;;;;;;3.00;1.80;;;21.40;47.00;;;;;;10376463;28;20226;-68
2022/10/16 08:58:48;;;;;;;2.60;2.10;;;21.60;46.80;;;;;;10378511;28;20233;-68
2022/10/16 09:04:14;;;;;;;2.27;1.73;;;21.70;47.90;;;;;;10375606;28;20225;-68
2022/10/16 09:09:39;;;;;;;1.70;1.60;;;21.90;46.70;;;;;;10379433;28;20735;-68
2022/10/16 09:14:56;;;;;;;1.60;1.50;;;22.10;46.30;;;;;;10380759;28;21695;-68
2022/10/16 09:20:16;;;;;;;1.77;1.67;;;22.30;45.20;;;;;;10377629;28;20233;-68
2022/10/16 09:25:22;;;;;;;2.30;1.57;;;22.50;46.00;;;;;;10379571;28;20577;-69
2022/10/16 09:30:30;;;;;;;1.77;1.50;;;22.80;45.20;;;;;;10376743;28;20815;-68
2022/10/16 09:35:38;;;;;;;1.63;1.53;;;23.00;44.50;;;;;;10352245;28;20225;-68
2022/10/16 09:40:43;;;;;;;1.60;1.50;;;23.20;44.10;;;;;;10379158;28;20238;-68
2022/10/16 09:45:58;;;;;;;2.43;1.60;;;23.40;44.20;;;;;;10375442;28;20723;-68
2022/10/16 09:51:04;;;;;;;1.27;1.17;;;23.60;43.60;;;;;;10374247;28;20221;-68
2022/10/16 09:56:13;;;;;;;1.73;1.60;;;23.70;44.30;;;;;;10379446;28;20226;-69
2022/10/16 10:01:16;;;;;;;1.67;1.57;;;23.90;43.30;;;;;;10375688;28;20234;-69
2022/10/16 10:06:26;;;;;;;1.80;1.70;;;24.10;43.80;;;;;;10374407;28;20234;-68
2022/10/16 10:11:51;;;;;;;1.77;1.57;;;24.30;42.60;;;;;;10375797;28;20761;-68
2022/10/16 10:17:16;;;;;;;3.50;1.70;;;24.50;42.90;;;;;;10373443;28;20245;-68
2022/10/16 10:22:25;;;;;;;1.83;1.67;;;24.70;42.30;;;;;;10372925;28;20225;-68
2022/10/16 10:27:40;;;;;;;1.50;1.40;;;24.80;42.00;;;;;;10375708;28;20604;-68
2022/10/16 10:32:53;;;;;;;1.80;1.70;;;24.90;41.60;;;;;;10375042;28;20233;-68
2022/10/16 10:38:06;;;;;;;1.70;1.60;;;25.10;41.00;;;;;;10373369;28;20236;-68
2022/10/16 10:43:23;;;;;;;1.90;1.70;;;25.20;41.00;;;;;;10375775;28;20872;-69
2022/10/16 10:48:51;;;;;;;1.60;1.50;;;25.30;41.10;;;;;;10371658;28;20241;-68
2022/10/16 10:54:07;;;;;;;1.77;1.40;;;25.40;40.50;;;;;;10385504;28;20726;-69
2022/10/16 10:59:47;;;;;;;3.93;1.50;;;25.40;40.10;;;;;;10380877;28;20229;-68
2022/10/16 11:05:15;;;;;;;2.50;1.50;;;25.40;41.20;;;;;;10382730;28;20226;-68
2022/10/16 11:10:22;;;;;;;1.60;1.50;;;25.40;41.20;;;;;;10384082;28;20229;-68
2022/10/16 11:15:31;;;;;;;1.80;1.70;;;25.50;41.00;;;;;;10383992;28;20237;-68
2022/10/16 11:20:39;;;;;;;1.70;1.60;;;25.60;40.90;;;;;;10383839;28;20234;-69
2022/10/16 11:25:44;;;;;;;1.57;1.40;;;25.70;40.70;;;;;;10382246;28;20222;-68
2022/10/16 11:30:55;;;;;;;1.70;1.60;;;25.70;40.50;;;;;;10379875;28;20851;-69
2022/10/16 11:36:05;;;;;;;1.63;1.53;;;25.80;39.40;;;;;;10382648;28;20217;-68
2022/10/16 11:41:18;;;;;;;3.10;1.70;;;25.80;39.60;;;;;;10382279;28;20645;-69
2022/10/16 11:46:25;;;;;;;3.23;1.60;;;25.90;39.00;;;;;;10381361;28;20234;-68
2022/10/16 11:51:36;;;;;;;1.60;1.50;;;25.90;39.10;;;;;;10382365;28;20257;-69
2022/10/16 11:56:41;;;;;;;1.63;1.53;;;25.90;38.80;;;;;;10381172;28;20731;-68
2022/10/16 12:01:51;;;;;;;2.70;1.63;;;25.90;39.30;;;;;;10375928;28;20296;-68
2022/10/16 12:06:58;;;;;;;1.50;1.40;;;25.90;38.00;;;;;;10383297;28;20756;-69
2022/10/16 12:12:02;;;;;;;2.30;1.50;;;25.90;38.90;;;;;;10366769;28;20229;-71
2022/10/16 12:17:27;;;;;;;1.60;1.50;;;25.90;39.50;;;;;;10370490;28;20287;-69
2022/10/16 12:22:31;;;;;;;1.50;1.40;;;25.90;38.60;;;;;;10376171;28;20237;-69
2022/10/16 12:27:39;;;;;;;1.50;1.30;;;26.00;39.00;;;;;;10371817;28;20234;-69
2022/10/16 12:32:44;;;;;;;1.30;1.30;;;25.90;38.90;;;;;;10369804;28;20234;-69
2022/10/16 12:37:50;;;;;;;1.40;1.40;;;26.00;38.30;;;;;;10372248;28;20330;-68
2022/10/16 12:42:53;;;;;;;2.00;1.30;;;26.00;39.20;;;;;;10373406;28;20233;-69
2022/10/16 12:47:59;;;;;;;1.10;1.00;;;25.90;38.40;;;;;;10366024;28;20894;-69
2022/10/16 12:53:04;;;;;;;1.10;1.00;;;26.00;37.40;;;;;;10371433;28;20222;-69
2022/10/16 12:58:29;;;;;;;1.13;1.07;;;25.90;38.00;;;;;;10372701;28;20222;-69
2022/10/16 13:03:54;;;;;;;1.13;1.00;;;26.00;36.60;;;;;;10366657;28;20859;-69
2022/10/16 13:09:21;;;;;;;1.13;1.10;;;26.00;36.10;;;;;;10366051;28;20593;-69
2022/10/16 13:14:52;;;;;;;1.10;1.00;;;26.00;36.10;;;;;;10367714;28;20221;-69
2022/10/16 13:20:07;;;;;;;2.20;0.80;;;26.10;36.30;;;;;;10351450;28;20709;-69
2022/10/16 13:25:24;;;;;;;0.90;0.90;;;26.10;35.30;;;;;;10367608;28;20275;-68
2022/10/16 13:30:29;;;;;;;1.00;0.90;;;26.20;34.80;;;;;;10368474;28;20228;-68
2022/10/16 13:35:36;;;;;;;1.77;1.10;;;26.30;36.10;;;;;;10368719;28;20229;-68
2022/10/16 13:40:50;;;;;;;0.97;0.97;;;26.30;35.50;;;;;;10366730;28;20268;-68
2022/10/16 13:45:59;;;;;;;1.30;1.20;;;26.30;34.50;;;;;;10365923;28;20235;-68
2022/10/16 13:51:13;;;;;;;1.27;1.23;;;26.30;36.00;;;;;;10368447;28;20232;-70
2022/10/16 13:56:17;;;;;;;1.10;1.10;;;26.30;34.00;;;;;;10364985;28;20436;-68
2022/10/16 14:01:24;;;;;;;3.03;0.97;;;26.30;35.60;;;;;;10371841;28;20715;-68
2022/10/16 14:06:36;;;;;;;1.20;1.10;;;26.30;34.80;;;;;;10368459;28;20226;-68
2022/10/16 14:11:47;;;;;;;0.90;0.90;;;26.30;34.50;;;;;;10364499;28;20230;-67
2022/10/16 14:16:50;;;;;;;1.23;1.00;;;26.30;34.60;;;;;;10366995;28;20338;-67
2022/10/16 14:21:55;;;;;;;1.00;0.97;;;26.40;35.40;;;;;;10366739;28;20229;-67
2022/10/16 14:26:59;;;;;;;1.07;0.97;;;26.30;34.80;;;;;;10369988;28;20652;-67
2022/10/16 14:32:04;;;;;;;1.10;1.10;;;26.40;35.10;;;;;;10369452;28;20695;-68
2022/10/16 14:37:16;;;;;;;2.00;0.90;;;26.30;34.60;;;;;;10379481;28;20226;-68
2022/10/16 14:42:23;;;;;;;1.17;1.07;;;26.30;33.90;;;;;;10375090;28;20222;-67
2022/10/16 14:47:27;;;;;;;2.33;1.10;;;26.30;34.50;;;;;;10375208;28;20237;-67
2022/10/16 14:52:32;;;;;;;1.03;0.97;;;26.30;34.70;;;;;;10377954;28;20228;-68
2022/10/16 14:57:38;;;;;;;1.20;1.10;;;26.20;34.70;;;;;;10376754;28;20230;-67
2022/10/16 15:02:42;;;;;;;3.30;1.10;;;26.20;35.50;;;;;;10375050;28;20603;-68
2022/10/16 15:07:48;;;;;;;2.80;1.10;;;26.20;36.00;;;;;;10377477;28;20242;-67
2022/10/16 15:12:52;;;;;;;1.33;1.10;;;26.20;35.60;;;;;;10374640;28;20234;-67
2022/10/16 15:17:57;;;;;;;1.43;1.10;;;26.10;36.10;;;;;;10372558;28;20225;-70
2022/10/16 15:23:02;;;;;;;2.63;1.17;;;26.10;36.30;;;;;;10381028;28;20222;-67
2022/10/16 15:28:06;;;;;;;1.63;1.10;;;26.10;36.30;;;;;;10380606;28;20644;-67
2022/10/16 15:33:15;;;;;;;1.33;1.17;;;26.00;36.60;;;;;;10384762;28;20221;-67
2022/10/16 15:38:22;;;;;;;2.50;1.20;;;25.90;36.40;;;;;;10389128;28;20971;-67
2022/10/16 15:43:25;;;;;;;1.40;1.00;;;25.80;36.70;;;;;;10372602;28;20234;-67
2022/10/16 15:48:29;;;;;;;1.93;1.20;;;25.80;36.70;;;;;;10377068;28;20292;-68
2022/10/16 15:53:33;;;;;;;5.40;1.30;;;25.70;37.10;;;;;;10381766;28;21052;-68
2022/10/16 15:58:37;;;;;;;1.20;1.10;;;25.60;36.60;;;;;;10383218;28;20230;-67
2022/10/16 16:03:40;;;;;;;1.70;1.10;;;25.50;36.90;;;;;;10384935;28;20230;-67
2022/10/16 16:08:45;;;;;;;2.67;1.33;;;25.40;37.00;;;;;;10386284;28;20225;-67
2022/10/16 16:13:48;;;;;;;1.20;1.20;;;25.30;37.30;;;;;;10382950;28;20243;-67
2022/10/16 16:18:55;;;;;;;2.40;1.03;;;25.20;37.50;;;;;;10383987;28;20284;-67
2022/10/16 16:23:59;;;;;;;3.17;1.40;;;25.10;37.70;;;;;;10386279;28;20232;-67
2022/10/16 16:29:04;;;;;;;5.53;1.80;;;24.90;37.60;;;;;;10376349;28;20213;-68
2022/10/16 16:34:07;;;;;;;3.90;2.30;;;24.70;37.60;;;;;;10383660;28;20277;-68
2022/10/16 16:39:12;;;;;;;3.30;3.10;;;24.50;37.80;;;;;;10377652;28;20225;-67
2022/10/16 16:44:16;;;;;;;35.67;5.43;;;24.40;38.00;;;;;;10378792;28;20218;-67
2022/10/16 16:49:19;;;;;;;3.77;3.47;;;24.30;38.20;;;;;;10375085;28;20225;-67
2022/10/16 16:54:24;;;;;;;3.73;3.43;;;24.20;38.30;;;;;;10383649;28;20233;-68
2022/10/16 16:59:27;;;;;;;3.53;3.33;;;24.10;38.40;;;;;;10377935;28;20738;-66
2022/10/16 17:04:30;;;;;;;6.27;3.30;;;23.90;38.30;;;;;;10383036;28;20226;-67
2022/10/16 17:09:35;;;;;;;3.20;2.90;;;23.80;38.70;;;;;;10380670;28;20230;-67
2022/10/16 17:14:38;;;;;;;5.80;3.03;;;23.70;38.80;;;;;;10370490;28;20296;-68
2022/10/16 17:19:41;;;;;;;5.43;3.20;;;23.60;38.80;;;;;;10362894;28;20230;-67
2022/10/16 17:24:49;;;;;;;5.40;3.50;;;23.40;39.20;;;;;;10354864;28;20291;-67
2022/10/16 17:29:53;;;;;;;4.63;4.23;;;23.30;39.40;;;;;;10354102;28;20361;-67
2022/10/16 17:34:57;;;;;;;6.40;5.70;;;23.20;39.30;;;;;;10356804;28;20227;-67
2022/10/16 17:40:01;;;;;;;7.23;6.47;;;23.20;39.30;;;;;;10356373;28;20233;-67
2022/10/16 17:45:05;;;;;;;4.83;3.60;;;23.10;39.30;;;;;;10353277;28;20213;-66
2022/10/16 17:50:09;;;;;;;4.40;4.00;;;23.00;39.50;;;;;;10355459;28;20689;-67
2022/10/16 17:55:19;;;;;;;4.30;3.57;;;22.90;39.50;;;;;;10360565;28;20237;-67
2022/10/16 18:00:29;;;;;;;3.57;3.23;;;22.80;40.00;;;;;;10356027;28;20229;-67
2022/10/16 18:05:32;;;;;;;4.50;3.20;;;22.70;39.60;;;;;;10366716;28;20225;-67
2022/10/16 18:10:36;;;;;;;3.10;2.90;;;22.60;39.90;;;;;;10375214;28;20718;-67
2022/10/16 18:15:40;;;;;;;2.70;2.50;;;22.50;40.30;;;;;;10373686;28;20924;-67
2022/10/16 18:20:43;;;;;;;6.13;2.10;;;22.40;40.80;;;;;;10361801;28;20241;-67
2022/10/16 18:25:53;;;;;;;3.07;2.00;;;22.30;40.10;;;;;;10346992;28;20610;-70
2022/10/16 18:30:57;;;;;;;3.00;1.70;;;22.30;41.00;;;;;;10353839;28;20236;-67
2022/10/16 18:36:02;;;;;;;3.63;2.50;;;22.30;40.50;;;;;;10359158;28;20221;-71
2022/10/16 18:41:06;;;;;;;4.43;2.50;;;22.20;40.70;;;;;;10355123;28;20218;-67
2022/10/16 18:46:11;;;;;;;5.80;3.00;;;22.20;40.80;;;;;;10355001;28;20622;-67
2022/10/16 18:51:17;;;;;;;3.57;3.07;;;22.10;40.80;;;;;;10353837;28;20227;-67
2022/10/16 18:56:23;;;;;;;6.47;3.50;;;22.10;41.00;;;;;;10355655;28;20230;-69
2022/10/16 19:01:28;;;;;;;5.27;4.77;;;22.00;40.90;;;;;;10353568;28;20234;-70
2022/10/16 19:06:34;;;;;;;11.63;7.53;;;22.00;40.80;;;;;;10349129;28;20292;-70
2022/10/16 19:11:39;;;;;;;8.63;7.10;;;21.90;40.90;;;;;;10355431;28;20814;-70
2022/10/16 19:16:44;;;;;;;10.90;7.73;;;21.90;40.80;;;;;;10357146;28;20325;-71
2022/10/16 19:21:54;;;;;;;9.17;7.60;;;21.80;40.70;;;;;;10360592;28;20234;-71
2022/10/16 19:26:59;;;;;;;7.30;6.60;;;21.70;40.70;;;;;;10366302;28;20864;-71
2022/10/16 19:32:02;;;;;;;7.07;6.27;;;21.60;41.00;;;;;;10369456;28;20690;-70
2022/10/16 19:37:09;;;;;;;7.20;6.50;;;21.50;40.70;;;;;;10367121;28;20229;-70
2022/10/16 19:42:14;;;;;;;10.00;6.83;;;21.40;40.70;;;;;;10370389;28;20230;-71
2022/10/16 19:47:17;;;;;;;9.70;6.93;;;21.40;41.10;;;;;;10367639;28;20233;-67
2022/10/16 19:52:25;;;;;;;11.30;7.53;;;21.30;40.70;;;;;;10363890;28;20299;-68
2022/10/16 19:57:32;;;;;;;8.57;6.90;;;21.20;40.80;;;;;;10375600;28;20230;-71
2022/10/16 20:02:36;;;;;;;7.03;5.67;;;21.10;41.00;;;;;;10383459;28;20222;-70
2022/10/16 20:07:39;;;;;;;6.83;6.13;;;21.00;41.00;;;;;;10379116;28;20266;-66
2022/10/16 20:12:44;;;;;;;9.57;6.47;;;20.90;41.00;;;;;;10376392;28;20226;-66
2022/10/16 20:17:47;;;;;;;8.73;7.17;;;20.80;41.40;;;;;;10377683;28;20870;-67
2022/10/16 20:22:50;;;;;;;8.50;6.97;;;20.70;41.30;;;;;;10377019;28;21062;-66
2022/10/16 20:27:54;;;;;;;8.37;6.87;;;20.60;41.50;;;;;;10375462;28;20229;-66
2022/10/16 20:32:58;;;;;;;7.37;6.63;;;20.50;41.80;;;;;;10379095;28;20967;-67
2022/10/16 20:38:01;;;;;;;7.37;6.63;;;20.40;41.60;;;;;;10383836;28;20268;-72
2022/10/16 20:43:06;;;;;;;8.73;6.13;;;20.40;41.60;;;;;;10378514;28;20218;-69
2022/10/16 20:48:11;;;;;;;5.87;5.37;;;20.30;42.00;;;;;;10383127;28;20236;-69
2022/10/16 20:53:14;;;;;;;12.03;5.20;;;20.30;41.80;;;;;;10387027;28;20264;-68
2022/10/16 20:58:18;;;;;;;5.60;4.70;;;20.20;41.80;;;;;;10378897;28;20229;-71
2022/10/16 21:03:21;;;;;;;4.23;3.63;;;20.10;42.20;;;;;;10383175;28;20257;-71
2022/10/16 21:08:24;;;;;;;4.53;3.20;;;20.10;42.20;;;;;;10379817;28;20230;-72
2022/10/16 21:13:29;;;;;;;3.80;2.97;;;20.10;42.30;;;;;;10380596;28;20976;-71
2022/10/16 21:18:33;;;;;;;3.73;3.37;;;20.10;42.60;;;;;;10377523;28;20253;-71
2022/10/16 21:23:36;;;;;;;5.50;3.33;;;20.10;42.40;;;;;;10380301;28;20234;-71
2022/10/16 21:28:40;;;;;;;3.67;3.30;;;20.00;42.40;;;;;;10384278;28;20234;-72
2022/10/16 21:33:43;;;;;;;3.50;2.67;;;20.00;42.70;;;;;;10377001;28;20222;-72
2022/10/16 21:38:47;;;;;;;3.00;2.70;;;19.90;42.50;;;;;;10379811;28;20265;-66
2022/10/16 21:43:53;;;;;;;2.60;2.40;;;19.90;42.60;;;;;;10383277;28;20237;-67
2022/10/16 21:48:57;;;;;;;2.47;2.27;;;19.80;43.10;;;;;;10381688;28;20757;-71
2022/10/16 21:54:01;;;;;;;4.03;2.47;;;19.80;42.50;;;;;;10377379;28;20732;-70
2022/10/16 21:59:06;;;;;;;3.10;2.43;;;19.70;42.60;;;;;;10378811;28;20233;-69
2022/10/16 22:04:10;;;;;;;2.87;2.67;;;19.70;42.80;;;;;;10384717;28;20281;-69
2022/10/16 22:09:14;;;;;;;2.80;2.30;;;19.70;42.70;;;;;;10379440;28;20233;-69
2022/10/16 22:14:20;;;;;;;4.20;2.43;;;19.60;42.60;;;;;;10382466;28;20230;-70
2022/10/16 22:19:23;;;;;;;2.90;2.40;;;19.60;42.70;;;;;;10378337;28;20234;-67
2022/10/16 22:24:27;;;;;;;2.43;2.23;;;19.50;42.20;;;;;;10375545;28;20700;-70
2022/10/16 22:29:33;;;;;;;3.07;2.30;;;19.50;42.50;;;;;;10379252;28;20222;-70
2022/10/16 22:34:37;;;;;;;3.00;2.30;;;19.40;42.80;;;;;;10377009;28;20738;-70
2022/10/16 22:39:40;;;;;;;2.37;2.17;;;19.30;42.40;;;;;;10378166;28;20232;-66
2022/10/16 22:44:44;;;;;;;2.37;2.17;;;19.30;42.50;;;;;;10377418;28;20221;-71
2022/10/16 22:49:47;;;;;;;2.73;2.13;;;19.30;43.50;;;;;;10382701;28;20253;-67
2022/10/16 22:54:51;;;;;;;4.90;2.13;;;19.20;42.40;;;;;;10381689;28;20319;-66
2022/10/16 22:59:55;;;;;;;3.07;2.10;;;19.20;42.60;;;;;;10380551;28;20229;-67
2022/10/16 23:04:58;;;;;;;2.53;2.10;;;19.20;42.90;;;;;;10382035;28;20222;-67
2022/10/16 23:10:01;;;;;;;2.60;2.20;;;19.10;42.50;;;;;;10385270;28;20240;-66
2022/10/16 23:15:07;;;;;;;2.40;2.20;;;19.00;42.60;;;;;;10389104;28;20222;-67
2022/10/16 23:20:11;;;;;;;3.23;2.13;;;18.90;43.00;;;;;;10382147;28;20233;-70
2022/10/16 23:25:14;;;;;;;2.70;2.00;;;18.90;42.70;;;;;;10385142;28;20222;-71
2022/10/16 23:30:19;;;;;;;2.57;1.83;;;18.80;42.70;;;;;;10381410;28;20230;-71
2022/10/16 23:35:24;;;;;;;2.00;1.90;;;18.80;42.80;;;;;;10383413;28;20234;-71
2022/10/16 23:40:27;;;;;;;1.97;1.80;;;18.70;42.60;;;;;;10379366;28;20261;-70
2022/10/16 23:45:31;;;;;;;3.00;1.73;;;18.60;42.40;;;;;;10381363;28;20237;-71
2022/10/16 23:50:34;;;;;;;2.33;1.80;;;18.60;42.70;;;;;;10384664;28;20233;-71
2022/10/16 23:55:38;;;;;;;2.47;1.90;;;18.60;42.70;;;;;;10384548;28;20237;-71
